Latest Coastal Weather Observations for Geraldton Airport

IDW60701

Issued at 7:22 pm WST Tuesday 28 June 2016 (issued every 10 minutes, with the page automatically refreshed every 10 minutes)

About coastal observations | Map of coastal stations | Coastal observations for WA | Marine services | Other Formats
Station Details ID: 008315 Name: GERALDTON AIRPORT Lat: -28.80 Lon: 114.70 Height: 29.7 m
Data from the previous 72 hours. | See also: Recent months at Geraldton Airport
Date/Time
WST
Temp
°C
Wind Pressure Rain since
9am
mm
Weather Cloud Vis
km
Sea
Height
m
Swell
Dir  Spd
kts
Gust
kts
hPa Trend Height
m
Period
s
Dir
28/07:00pm 17.3 N 9 11 1015.2 - 0.0 - Partly cloudy 10 - - - -
28/06:30pm 17.6 N 10 12 1015.1 - 0.0 - - 10 - - - -
28/06:00pm 18.0 NNW 11 15 1014.9 - 0.0 - - 10 - - - -
28/05:30pm 18.5 NNW 14 17 1014.9 - 0.0 - Partly cloudy 10 - - - -
28/05:00pm 19.4 NNW 14 20 1014.6 - 0.0 - Partly cloudy 10 - - - -
28/04:30pm 19.5 NNW 16 21 1014.4 - 0.0 - - 10 - - - -
28/04:00pm 20.3 NNW 19 26 1014.1 - 0.0 - Partly cloudy 10 - - - -
28/03:30pm 19.8 NW 17 27 1014.1 - 0.0 - Partly cloudy 10 - - - -
28/03:29pm 19.8 NNW 17 27 1014.1 - 0.0 - Partly cloudy 10 - - - -
28/03:00pm 20.5 NNW 15 19 1013.9 - 0.0 - Mostly cloudy 10 - - - -
28/02:30pm 21.1 NNW 19 25 1013.7 - 0.0 - Mostly clear 10 - - - -
28/02:00pm 21.4 NNW 17 24 1013.8 - 0.0 - Mostly clear 10 - - - -
28/01:30pm 21.0 NNW 19 25 1014.1 - 0.0 - Mostly clear 10 - - - -
28/01:00pm 21.5 NNW 17 24 1014.3 - 0.0 - Mostly clear 10 - - - -
28/12:30pm 21.2 NNW 17 23 1014.7 - 0.0 - Mostly clear 10 - - - -
28/12:00pm 21.0 NW 16 22 1015.1 - 0.0 - Mostly clear 10 - - - -
28/11:30am 21.1 NNW 15 21 1015.4 - 0.0 - Mostly clear 10 - - - -
28/11:00am 20.6 NNW 14 19 1015.6 - 0.0 - Mostly clear 10 - - - -
28/10:30am 20.3 NNW 12 15 1015.9 - 0.0 - Mostly clear 10 - - - -
28/10:00am 16.9 NNE 10 13 1016.1 - 0.0 - Mostly clear 10 - - - -
28/09:30am 14.7 NNE 12 16 1016.0 - 0.0 - Mostly clear 10 - - - -
28/09:00am 13.3 NNE 12 16 1015.9 - 0.2 - Mostly clear 10 - - - -
28/08:30am 12.0 NNE 11 14 1015.8 - 0.2 - Mostly clear 10 - - - -
28/08:00am 11.1 NNE 13 16 1015.8 - 0.2 - Mostly clear 10 - - - -
28/07:30am 10.4 N 10 13 1015.6 - 0.2 - Mostly clear 10 - - - -
28/07:00am 10.5 N 11 13 1015.2 - 0.2 - Mostly clear 10 - - - -
28/06:30am 11.0 N 10 14 1014.9 - 0.2 - Partly cloudy 10 - - - -
28/06:00am 11.5 NNE 13 17 1014.6 - 0.2 - Partly cloudy 10 - - - -
28/05:30am 11.2 NNE 12 15 1014.5 - 0.2 - Partly cloudy 10 - - - -
28/05:00am 11.2 NNE 10 13 1014.5 - 0.2 - Cloudy 10 - - - -
28/04:30am 10.9 NNE 11 15 1014.4 - 0.2 - Partly cloudy 10 - - - -
28/04:00am 10.8 NNE 11 15 1014.5 - 0.2 - Partly cloudy 10 - - - -
28/03:30am 10.7 NNE 13 16 1014.6 - 0.2 - Partly cloudy 10 - - - -
28/03:00am 11.0 NNE 13 18 1014.6 - 0.2 - Cloudy 10 - - - -
28/02:30am 10.6 NNE 14 17 1014.7 - 0.2 - Cloudy 10 - - - -
28/02:00am 10.1 NNE 13 17 1014.8 - 0.2 - Partly cloudy 10 - - - -
28/01:30am 9.6 NNE 13 16 1014.9 - 0.2 - - 10 - - - -
28/01:00am 9.3 NNE 12 15 1014.9 - 0.2 - - 10 - - - -
28/12:30am 9.1 NNE 13 14 1015.1 - 0.2 - - 10 - - - -
28/12:00am 9.0 NNE 12 14 1015.3 - 0.2 - - 10 - - - -
 
Date/Time
WST
Temp
°C
Wind Pressure Rain since
9am
mm
Weather Cloud Vis
km
Sea
Height
m
Swell
Dir  Spd
kts
Gust
kts
hPa Trend Height
m
Period
s
Dir
27/11:30pm 9.7 NNE 12 14 1015.7 - 0.2 - - 10 - - - -
27/11:00pm 9.7 NNE 12 14 1015.9 - 0.2 - - 10 - - - -
27/10:30pm 10.9 NNE 11 14 1016.0 - 0.2 - - 10 - - - -
27/10:00pm 9.9 NNE 11 13 1015.9 - 0.2 - - 10 - - - -
27/09:30pm 10.4 NNE 12 13 1015.9 - 0.2 - - 10 - - - -
27/09:00pm 11.0 NNE 10 11 1016.2 - 0.2 - Partly cloudy 10 - - - -
27/08:30pm 11.5 NNE 10 11 1016.1 - 0.2 - Partly cloudy 10 - - - -
27/08:00pm 10.8 NNE 10 11 1016.1 - 0.2 - - 10 - - - -
27/07:30pm 11.2 NNE 9 9 1016.1 - 0.2 - - 10 - - - -
27/07:00pm 11.0 NNE 7 8 1016.1 - 0.2 - - 10 - - - -
27/06:30pm 11.3 NNE 6 7 1015.9 - 0.2 - - 10 - - - -
27/06:00pm 12.1 NNE 4 6 1015.7 - 0.2 - - 10 - - - -
27/05:30pm 15.8 NNW 5 6 1015.5 - 0.2 - - 10 - - - -
27/05:00pm 17.8 WNW 7 8 1015.6 - 0.2 - - 10 - - - -
27/04:30pm 18.2 WNW 6 8 1015.7 - 0.2 - - 10 - - - -
27/04:00pm 17.6 WNW 9 10 1015.6 - 0.2 - - 10 - - - -
27/03:30pm 18.3 W 9 11 1015.7 - 0.2 - - 10 - - - -
27/03:00pm 19.1 WNW 8 13 1015.6 - 0.2 - Mostly clear 10 - - - -
27/02:30pm 19.1 WNW 9 13 1015.8 - 0.2 - Mostly clear 10 - - - -
27/02:00pm 19.1 WNW 10 12 1015.8 - 0.2 - Mostly clear 10 - - - -
27/01:30pm 19.1 WNW 11 14 1016.3 - 0.2 - Mostly clear 10 - - - -
27/01:00pm 19.6 NW 9 11 1016.7 - 0.2 - Mostly clear 10 - - - -
27/12:30pm 18.3 N 9 14 1017.4 - 0.2 - Mostly clear 10 - - - -
27/12:00pm 17.5 N 11 15 1018.0 - 0.0 - Mostly clear 10 - - - -
27/11:30am 16.4 NNE 13 16 1018.6 - 0.0 - Mostly clear 10 - - - -
27/11:00am 15.0 NNE 11 15 1019.2 - 0.0 - Mostly clear 10 - - - -
27/10:30am 13.6 NNE 13 16 1019.7 - 0.0 - Mostly clear 10 - - - -
27/10:00am 11.8 NNE 14 17 1020.1 - 0.0 - Mostly clear 10 - - - -
27/09:30am 10.3 NNE 13 17 1020.2 - 0.0 - Mostly clear 10 - - - -
27/09:00am 8.7 NNE 15 19 1020.2 - 0.0 - Mostly clear 10 - - - -
27/08:30am 7.7 NNE 15 18 1020.2 - 0.0 - Mostly clear 10 - - - -
27/08:00am 6.1 NNE 14 17 1020.4 - 0.0 - Mostly clear 10 - - - -
27/07:30am 5.3 NNE 13 16 1020.3 - 0.0 - Mostly clear 10 - - - -
27/07:00am 4.8 NNE 14 16 1020.3 - 0.0 - - 10 - - - -
27/06:30am 5.0 NNE 14 18 1020.4 - 0.0 - - 10 - - - -
27/06:00am 4.3 NE 10 11 1020.4 - 0.0 - - 10 - - - -
27/05:30am 4.3 NE 11 13 1020.4 - 0.0 - - 10 - - - -
27/05:00am 4.8 NE 11 13 1020.5 - 0.0 - - 10 - - - -
27/04:30am 4.9 NE 11 13 1020.5 - 0.0 - - 10 - - - -
27/04:00am 5.7 NNE 11 13 1020.3 - 0.0 - - 10 - - - -
27/03:30am 5.2 N 5 7 1020.5 - 0.0 - - 10 - - - -
27/03:00am 5.8 NNE 11 13 1020.8 - 0.0 - - 10 - - - -
27/02:30am 6.2 N 10 11 1021.0 - 0.0 - - 10 - - - -
27/02:00am 4.9 NNE 9 9 1021.1 - 0.0 - - 10 - - - -
27/01:30am 5.5 NNE 9 10 1021.3 - 0.0 - - 10 - - - -
27/01:00am 3.7 NNE 6 7 1021.3 - 0.0 - - 10 - - - -
27/12:30am 3.7 NNE 6 7 1021.5 - 0.0 - - 10 - - - -
27/12:00am 4.5 NNE 6 7 1021.9 - 0.0 - - 10 - - - -
 
Date/Time
WST
Temp
°C
Wind Pressure Rain since
9am
mm
Weather Cloud Vis
km
Sea
Height
m
Swell
Dir  Spd
kts
Gust
kts
hPa Trend Height
m
Period
s
Dir
26/11:30pm 5.2 NNE 8 9 1021.9 - 0.0 - - 10 - - - -
26/11:00pm 5.1 NNE 8 9 1022.2 - 0.0 - - 10 - - - -
26/10:30pm 5.9 CALM 0 0 1022.4 - 0.0 - - 10 - - - -
26/10:00pm 6.1 SE 2 4 1022.5 - 0.0 - - 10 - - - -
26/09:30pm 6.7 SSE 5 5 1022.6 - 0.0 - - 10 - - - -
26/09:00pm 6.9 S 4 5 1022.9 - 0.0 - - 10 - - - -
26/08:30pm 7.2 SSE 4 5 1022.8 - 0.0 - - 10 - - - -
26/08:00pm 6.2 SE 4 6 1022.7 - 0.0 - - 10 - - - -
26/07:30pm 7.8 ESE 6 7 1022.6 - 0.0 - - 10 - - - -
26/07:00pm 8.5 ESE 5 6 1022.5 - 0.0 - - 10 - - - -
26/06:30pm 9.3 E 7 8 1022.4 - 0.0 - - 10 - - - -
26/06:00pm 10.1 E 6 7 1022.3 - 0.0 - - 10 - - - -
26/05:30pm 12.7 ESE 6 7 1022.1 - 0.0 - - 10 - - - -
26/05:00pm 14.3 ESE 7 7 1022.1 - 0.0 - - 10 - - - -
26/04:30pm 15.8 ESE 6 8 1022.1 - 0.0 - - 10 - - - -
26/04:00pm 16.5 E 7 10 1022.3 - 0.0 - - 10 - - - -
26/03:30pm 16.6 ESE 8 11 1022.5 - 0.0 - - 10 - - - -
26/03:00pm 16.8 E 9 13 1022.7 - 0.0 - - 10 - - - -
26/02:30pm 16.7 ESE 9 12 1022.5 - 0.0 - - 10 - - - -
26/02:00pm 16.5 E 8 11 1022.8 - 0.0 - - 10 - - - -
26/01:30pm 16.4 E 7 11 1023.4 - 0.0 - - 10 - - - -
26/01:00pm 16.3 E 8 11 1023.9 - 0.0 - - 10 - - - -
26/12:30pm 16.1 ENE 9 11 1024.4 - 0.0 - - 10 - - - -
26/12:00pm 15.4 E 7 10 1025.2 - 0.0 - - 10 - - - -
26/11:30am 15.6 ENE 9 12 1025.7 - 0.0 - - 10 - - - -
26/11:00am 14.9 ENE 9 12 1026.0 - 0.0 - - 10 - - - -
26/10:30am 14.3 E 8 10 1026.3 - 0.0 - - 10 - - - -
26/10:00am 13.4 ENE 9 11 1026.4 - 0.0 - - 10 - - - -
26/09:30am 12.7 ENE 7 10 1026.2 - 0.0 - - 10 - - - -
26/09:00am 11.0 NNE 5 6 1025.9 - 0.2 - - 10 - - - -
26/08:30am 9.5 NNE 6 8 1025.6 - 0.2 - - 10 - - - -
26/08:00am 6.8 NE 3 5 1025.2 - 0.2 - - 10 - - - -
26/07:30am 5.8 NNE 5 6 1025.0 - 0.2 - - 10 - - - -
26/07:00am 6.1 NNE 6 8 1024.9 - 0.2 - - 10 - - - -
26/06:30am 6.6 NNE 7 8 1024.6 - 0.2 - - 10 - - - -
26/06:00am 7.0 NNE 7 8 1024.4 - 0.2 - - 10 - - - -
26/05:30am 7.6 NE 7 10 1024.1 - 0.2 - - 10 - - - -
26/05:00am 7.9 NW 1 5 1023.9 - 0.2 - - 10 - - - -
26/04:30am 7.4 NE 5 7 1023.5 - 0.2 - - 10 - - - -
26/04:00am 7.9 E 5 7 1023.7 - 0.2 - - 10 - - - -
26/03:30am 7.2 ESE 7 9 1023.7 - 0.2 - - 10 - - - -
26/03:00am 6.8 SE 7 8 1023.9 - 0.2 - - 10 - - - -
26/02:30am 6.9 SE 7 8 1023.7 - 0.2 - - 10 - - - -
26/02:00am 7.7 SE 7 8 1023.9 - 0.2 - - 10 - - - -
26/01:30am 8.6 ESE 6 8 1023.9 - 0.2 - - 10 - - - -
26/01:00am 7.4 ESE 5 6 1023.5 - 0.2 - - 10 - - - -
26/12:30am 6.3 ESE 3 4 1023.3 - 0.2 - - 10 - - - -
26/12:00am 7.3 SSE 7 7 1023.5 - 0.2 - - 10 - - - -
 
Date/Time
WST
Temp
°C
Wind Pressure Rain since
9am
mm
Weather Cloud Vis
km
Sea
Height
m
Swell
Dir  Spd
kts
Gust
kts
hPa Trend Height
m
Period
s
Dir
25/11:30pm 8.1 SSE 6 7 1023.4 - 0.2 - - 10 - - - -
25/11:00pm 8.3 SE 7 7 1023.4 - 0.2 - - 10 - - - -
25/10:30pm 9.0 SE 6 6 1023.6 - 0.2 - - 10 - - - -
25/10:00pm 9.8 SSE 7 9 1023.6 - 0.2 - - 10 - - - -
25/09:30pm 10.3 SSE 6 7 1023.7 - 0.2 - - 10 - - - -
25/09:00pm 11.2 SE 7 8 1023.6 - 0.2 - Partly cloudy 10 - - - -
25/08:30pm 10.9 SE 6 8 1023.3 - 0.2 - Partly cloudy 10 - - - -
25/08:00pm 11.0 E 2 3 1023.1 - 0.2 - Partly cloudy 10 - - - -
25/07:30pm 10.8 E 5 5 1022.7 - 0.2 - - 10 - - - -

Other Formats:

Comma delimited format used in spreadsheet applications
http://www.bom.gov.au/fwo/IDW60701/IDW60701.94403.axf

JavaScript Object Notation format (JSON) in row-major order
http://www.bom.gov.au/fwo/IDW60701/IDW60701.94403.json